Radiance Of The Seas — C6SE7 — position and weather

sailwx.info

Track history (hours):
 
Tides and Currents Weather Stations Pressure Air Temp Water Temp Dewpoint Dewpoint Depression Visibility Wind Speed Wind Dir Waves Ship Positions

Radiance Of The Seas

Operator: Royal Caribbean Cruises Ltd

Last reported at 2014-Oct-28 14:21 UTC. Time now 2014-Oct-31 15:22 UTC.
Position S 12°25' E 130°47'.

Type: Passenger vessel. MMSI: 311319000.

Date/timePositionNaut miles runAvg speedWind from/ knotsBaromVisibWave heightAir tempDewpointWater temp
2014-Oct-28 14:21S 12°25' E 130°47'5 6.5
2014-Oct-28 13:33S 12°28' E 130°51'0 0.0
2014-Oct-28 12:33S 12°28' E 130°51'0 0.1
2014-Oct-28 11:32S 12°28' E 130°51'0 0.0
2014-Oct-28 09:14S 12°28' E 130°51'0 0.0
2014-Oct-28 08:32S 12°28' E 130°51'0 0.0
2014-Oct-28 07:20S 12°28' E 130°51'0 0.0
2014-Oct-28 06:32S 12°28' E 130°51'0 0.0
2014-Oct-28 00:32S 12°28' E 130°51'0 0.0
2014-Oct-27 23:32S 12°28' E 130°51'0 0.0
2014-Oct-27 22:32S 12°28' E 130°51'4 4.6
2014-Oct-27 21:33S 12°26' E 130°47'71715.1
2014-Oct-25 22:00S 11°00' E 142°54'1212.0 110 / 261012.0 5.4 1.025.0 26.0
2014-Oct-25 21:00S 11°12' E 142°54'40516.9 110 / 261012.0 5.4 1.025.0 26.0
2014-Oct-24 21:00S 17°12' E 146°06'1313.3 090 / 171016.0 5.4 1.023.0 25.0
2014-Oct-24 20:00S 17°24' E 146°12'3130.5 090 / 171016.0 5.4 1.023.0 25.0
2014-Oct-24 19:00S 17°54' E 146°18'   100 / 171016.0 5.4 1.023.0 25.0
2014-Oct-22 11:33S 26°38' E 153°17'1414.0
2014-Oct-22 10:33S 26°50' E 153°09'1717.2
2014-Oct-22 09:33S 27°05' E 153°18'1514.6
2014-Oct-22 08:33S 27°18' E 153°13'5 4.9
2014-Oct-22 07:32S 27°23' E 153°10'0 0.0
2014-Oct-22 06:32S 27°23' E 153°10'0 0.0
2014-Oct-22 05:32S 27°23' E 153°10'0 0.0
2014-Oct-22 04:32S 27°23' E 153°10'0 0.0
2014-Oct-22 03:32S 27°23' E 153°10'0 0.0
2014-Oct-22 02:32S 27°23' E 153°10'0 0.0
2014-Oct-22 01:32S 27°23' E 153°10'0 0.0
2014-Oct-22 00:32S 27°23' E 153°10'0 0.0
2014-Oct-21 23:32S 27°23' E 153°10'0 0.0
2014-Oct-21 22:32S 27°23' E 153°10'0 0.3
2014-Oct-21 21:34S 27°23' E 153°10'8 8.2
2014-Oct-21 20:34S 27°16' E 153°15'1313.1
2014-Oct-21 19:33S 27°04' E 153°18'1616.0
2014-Oct-21 18:33S 26°49' E 153°10'9 9.0
2014-Oct-21 17:34S 26°43' E 153°17'1813.7
2014-Oct-21 16:16S 26°52' E 153°34'1013.6
2014-Oct-21 15:33S 27°01' E 153°38'1614.4
2014-Oct-21 14:27S 27°17' E 153°42'1213.7
2014-Oct-21 13:33S 27°29' E 153°45'1414.1
2014-Oct-21 12:33S 27°43' E 153°46'1614.1
2014-Oct-21 11:27S 27°58' E 153°45'27614.3
2014-Oct-20 16:07S 32°28' E 152°38'814.4
2014-Oct-20 15:33S 32°35' E 152°33'1414.3
2014-Oct-20 14:33S 32°47' E 152°23'1414.1
2014-Oct-20 13:33S 32°58' E 152°13'1414.4
2014-Oct-20 12:33S 33°10' E 152°03'55 3.0
2014-Oct-19 18:19S 33°50' E 151°18'1012.6
2014-Oct-19 17:33S 33°47' E 151°29'2016.2
2014-Oct-19 16:19S 33°34' E 151°47'1316.7
2014-Oct-19 15:31S 33°24' E 151°59'1717.6
2014-Oct-19 14:33S 33°12' E 152°12'1717.6
2014-Oct-19 13:33S 32°60' E 152°27'1717.5
2014-Oct-19 12:33S 32°48' E 152°42'1322.4
2014-Oct-19 12:00S 32°36' E 152°48'613.0 010 / 201024.0 5.4 1.019.0 22.0
2014-Oct-19 11:33S 32°33' E 152°54'916.6
2014-Oct-19 11:00S 32°24' E 152°54'   010 / 201024.0 5.4 1.019.0 22.0
Track history (hours):
 
Tides and Currents Weather Stations Pressure Air Temp Water Temp Dewpoint Dewpoint Depression Visibility Wind Speed Wind Dir Waves Ship Positions

Radiance Of The Seas

Operator: Royal Caribbean Cruises Ltd

Last reported at 2014-Oct-28 14:21 UTC. Time now 2014-Oct-31 15:22 UTC.
Position S 12°25' E 130°47'.

Type: Passenger vessel. MMSI: 311319000.

Date/timePositionNaut miles runAvg speedWind from/ knotsBaromVisibWave heightAir tempDewpointWater temp
2014-Oct-28 14:21S 12°25' E 130°47'5 6.5
2014-Oct-28 13:33S 12°28' E 130°51'0 0.0
2014-Oct-28 12:33S 12°28' E 130°51'0 0.1
2014-Oct-28 11:32S 12°28' E 130°51'0 0.0
2014-Oct-28 09:14S 12°28' E 130°51'0 0.0
2014-Oct-28 08:32S 12°28' E 130°51'0 0.0
2014-Oct-28 07:20S 12°28' E 130°51'0 0.0
2014-Oct-28 06:32S 12°28' E 130°51'0 0.0
2014-Oct-28 00:32S 12°28' E 130°51'0 0.0
2014-Oct-27 23:32S 12°28' E 130°51'0 0.0
2014-Oct-27 22:32S 12°28' E 130°51'4 4.6
2014-Oct-27 21:33S 12°26' E 130°47'71715.1
2014-Oct-25 22:00S 11°00' E 142°54'1212.0 110 / 261012.0 5.4 1.025.0 26.0
2014-Oct-25 21:00S 11°12' E 142°54'40516.9 110 / 261012.0 5.4 1.025.0 26.0
2014-Oct-24 21:00S 17°12' E 146°06'1313.3 090 / 171016.0 5.4 1.023.0 25.0
2014-Oct-24 20:00S 17°24' E 146°12'3130.5 090 / 171016.0 5.4 1.023.0 25.0
2014-Oct-24 19:00S 17°54' E 146°18'   100 / 171016.0 5.4 1.023.0 25.0
2014-Oct-22 11:33S 26°38' E 153°17'1414.0
2014-Oct-22 10:33S 26°50' E 153°09'1717.2
2014-Oct-22 09:33S 27°05' E 153°18'1514.6
2014-Oct-22 08:33S 27°18' E 153°13'5 4.9
2014-Oct-22 07:32S 27°23' E 153°10'0 0.0
2014-Oct-22 06:32S 27°23' E 153°10'0 0.0
2014-Oct-22 05:32S 27°23' E 153°10'0 0.0
2014-Oct-22 04:32S 27°23' E 153°10'0 0.0
2014-Oct-22 03:32S 27°23' E 153°10'0 0.0
2014-Oct-22 02:32S 27°23' E 153°10'0 0.0
2014-Oct-22 01:32S 27°23' E 153°10'0 0.0
2014-Oct-22 00:32S 27°23' E 153°10'0 0.0
2014-Oct-21 23:32S 27°23' E 153°10'0 0.0
2014-Oct-21 22:32S 27°23' E 153°10'0 0.3
2014-Oct-21 21:34S 27°23' E 153°10'8 8.2
2014-Oct-21 20:34S 27°16' E 153°15'1313.1
2014-Oct-21 19:33S 27°04' E 153°18'1616.0
2014-Oct-21 18:33S 26°49' E 153°10'9 9.0
2014-Oct-21 17:34S 26°43' E 153°17'1813.7
2014-Oct-21 16:16S 26°52' E 153°34'1013.6
2014-Oct-21 15:33S 27°01' E 153°38'1614.4
2014-Oct-21 14:27S 27°17' E 153°42'1213.7
2014-Oct-21 13:33S 27°29' E 153°45'1414.1
2014-Oct-21 12:33S 27°43' E 153°46'1614.1
2014-Oct-21 11:27S 27°58' E 153°45'27614.3
2014-Oct-20 16:07S 32°28' E 152°38'814.4
2014-Oct-20 15:33S 32°35' E 152°33'1414.3
2014-Oct-20 14:33S 32°47' E 152°23'1414.1
2014-Oct-20 13:33S 32°58' E 152°13'1414.4
2014-Oct-20 12:33S 33°10' E 152°03'55 3.0
2014-Oct-19 18:19S 33°50' E 151°18'1012.6
2014-Oct-19 17:33S 33°47' E 151°29'2016.2
2014-Oct-19 16:19S 33°34' E 151°47'1316.7
2014-Oct-19 15:31S 33°24' E 151°59'1717.6
2014-Oct-19 14:33S 33°12' E 152°12'1717.6
2014-Oct-19 13:33S 32°60' E 152°27'1717.5
2014-Oct-19 12:33S 32°48' E 152°42'1322.4
2014-Oct-19 12:00S 32°36' E 152°48'613.0 010 / 201024.0 5.4 1.019.0 22.0
2014-Oct-19 11:33S 32°33' E 152°54'916.6
2014-Oct-19 11:00S 32°24' E 152°54'   010 / 201024.0 5.4 1.019.0 22.0

Dump ship's entire track history